Time;durP1;ratioP1;P1;durP2;ratioP2;P2;SDS_P1;SDS_P2;PMS_P1;PMS_P2;Temp;Humidity;BMP_temperature;BMP_pressure;BME280_temperature;BME280_humidity;BME280_pressure;Samples;Min_cycle;Max_cycle;Signal;HPM_P1;HPM_P2
2022/07/12 00:01:51;;;;;;;12.05;3.30;;;486.40;1843.20;;;;;;5093866;28;20473;-75
2022/07/12 00:04:17;;;;;;;12.48;3.55;;;461.70;1868.80;;;;;;5093925;28;20024;-76
2022/07/12 00:06:43;;;;;;;7.10;3.08;;;461.40;1894.40;;;;;;5091758;28;20531;-76
2022/07/12 00:09:09;;;;;;;12.77;4.35;;;461.50;1894.40;;;;;;5092300;28;20044;-76
2022/07/12 00:11:35;;;;;;;10.50;3.55;;;461.60;1894.40;;;;;;5093696;28;20486;-75
2022/07/12 00:14:02;;;;;;;13.05;3.58;;;461.50;1894.40;;;;;;5092276;28;20051;-75
2022/07/12 00:16:27;;;;;;;11.90;3.92;;;461.50;1920.00;;;;;;5094097;28;20047;-75
2022/07/12 00:18:54;;;;;;;11.73;3.25;;;461.40;1920.00;;;;;;5093393;28;20024;-75
2022/07/12 00:21:20;;;;;;;11.80;3.55;;;461.40;1945.60;;;;;;5093785;28;20032;-76
2022/07/12 00:23:46;;;;;;;9.75;3.42;;;461.30;1971.20;;;;;;5093440;28;20423;-75
2022/07/12 00:26:12;;;;;;;7.28;3.17;;;461.20;1971.20;;;;;;5093416;28;20031;-75
2022/07/12 00:28:37;;;;;;;10.30;2.90;;;461.20;1971.20;;;;;;5092002;28;20027;-75
2022/07/12 00:31:03;;;;;;;6.47;2.90;;;461.20;1996.80;;;;;;5092218;28;20070;-75
2022/07/12 00:33:29;;;;;;;8.95;3.10;;;461.10;1996.80;;;;;;5091800;28;20039;-76
2022/07/12 00:35:55;;;;;;;9.18;4.25;;;460.90;2048.00;;;;;;5092063;28;20020;-76
2022/07/12 00:38:21;;;;;;;11.20;4.10;;;460.90;2048.00;;;;;;5093131;28;20035;-75
2022/07/12 00:40:47;;;;;;;6.50;2.50;;;460.90;2073.60;;;;;;5092986;28;20462;-76
2022/07/12 00:43:13;;;;;;;9.52;3.55;;;460.90;2073.60;;;;;;5091987;28;20016;-76
2022/07/12 00:45:39;;;;;;;6.97;3.20;;;460.90;2073.60;;;;;;5091656;28;20020;-76
2022/07/12 00:48:05;;;;;;;8.60;3.65;;;460.80;2099.20;;;;;;5093114;28;20024;-75
2022/07/12 00:50:31;;;;;;;7.82;3.08;;;460.80;2124.80;;;;;;5090571;28;20024;-76
2022/07/12 00:52:58;;;;;;;12.45;4.22;;;460.80;2124.80;;;;;;5091322;28;20036;-75
2022/07/12 00:55:24;;;;;;;7.72;3.30;;;460.80;2124.80;;;;;;5092706;28;20032;-75
2022/07/12 00:57:50;;;;;;;10.20;3.78;;;460.90;2099.20;;;;;;5091585;28;20487;-75
2022/07/12 01:00:22;;;;;;;13.18;3.85;;;460.90;2099.20;;;;;;5092715;28;20114;-76
2022/07/12 01:02:48;;;;;;;12.40;4.15;;;460.80;2124.80;;;;;;5092589;28;20016;-75
2022/07/12 01:05:14;;;;;;;14.23;3.88;;;460.80;2124.80;;;;;;5092823;28;20080;-76
2022/07/12 01:07:40;;;;;;;9.80;3.60;;;436.10;2124.80;;;;;;5092596;28;20016;-76
2022/07/12 01:10:07;;;;;;;10.48;3.75;;;436.10;2124.80;;;;;;5091299;28;20121;-75
2022/07/12 01:12:34;;;;;;;7.97;3.80;;;460.80;2124.80;;;;;;5091150;28;20039;-75
2022/07/12 01:15:01;;;;;;;11.20;3.63;;;436.10;2124.80;;;;;;5092796;28;20020;-76
2022/07/12 01:17:27;;;;;;;7.32;2.92;;;436.10;2124.80;;;;;;5091083;28;20078;-76
2022/07/12 01:19:58;;;;;;;6.88;3.47;;;436.10;2150.40;;;;;;5092433;28;20012;-75
2022/07/12 01:22:31;;;;;;;9.75;3.10;;;436.00;2201.60;;;;;;5092385;28;20024;-76
2022/07/12 01:24:59;;;;;;;5.75;3.13;;;435.90;2176.00;;;;;;5090345;28;20020;-75
2022/07/12 01:27:24;;;;;;;6.47;3.13;;;435.90;2201.60;;;;;;5091055;28;20528;-76
2022/07/12 01:29:50;;;;;;;11.35;3.38;;;435.90;2176.00;;;;;;5092286;28;20098;-75
2022/07/12 01:32:25;;;;;;;14.60;3.78;;;435.90;2176.00;;;;;;5092236;28;20100;-76
2022/07/12 01:35:04;;;;;;;11.40;3.58;;;435.80;2201.60;;;;;;5089405;28;20024;-76
2022/07/12 01:37:56;;;;;;;10.40;3.67;;;435.80;2201.60;;;;;;5087970;28;20024;-75
2022/07/12 01:40:22;;;;;;;8.45;3.80;;;435.80;2201.60;;;;;;5087431;28;20051;-75
2022/07/12 01:42:48;;;;;;;7.97;3.33;;;435.70;2201.60;;;;;;5091889;28;20510;-75
2022/07/12 01:45:14;;;;;;;10.30;3.88;;;435.70;2227.20;;;;;;5092146;28;20508;-76
2022/07/12 01:47:40;;;;;;;11.15;3.55;;;435.70;2227.20;;;;;;5091928;28;20016;-76
2022/07/12 01:50:10;;;;;;;11.65;3.28;;;435.80;2227.20;;;;;;5091698;28;20028;-75
2022/07/12 01:52:38;;;;;;;9.32;3.70;;;435.80;2201.60;;;;;;5091889;28;20023;-75
2022/07/12 01:55:04;;;;;;;7.53;4.43;;;435.70;2201.60;;;;;;5090251;28;20081;-75
2022/07/12 01:57:32;;;;;;;9.18;3.67;;;435.70;2227.20;;;;;;5091947;28;20032;-75
2022/07/12 02:00:00;;;;;;;8.32;3.85;;;435.60;2227.20;;;;;;5091815;28;20026;-76
2022/07/12 02:02:28;;;;;;;10.13;3.65;;;435.60;2252.80;;;;;;5091928;28;20020;-76
2022/07/12 02:04:54;;;;;;;12.30;4.25;;;435.40;2304.00;;;;;;5089132;28;20020;-76
2022/07/12 02:07:21;;;;;;;10.88;3.65;;;435.40;2304.00;;;;;;5091869;28;20024;-75
2022/07/12 02:09:46;;;;;;;9.85;3.90;;;435.60;2278.40;;;;;;5090433;28;20052;-75
2022/07/12 02:12:12;;;;;;;9.68;4.05;;;435.40;2329.60;;;;;;5088777;28;20051;-75
2022/07/12 02:14:38;;;;;;;8.38;3.92;;;435.40;2329.60;;;;;;5090649;28;20458;-76
2022/07/12 02:17:03;;;;;;;14.10;4.40;;;435.30;2355.20;;;;;;5089991;28;20021;-75
2022/07/12 02:19:29;;;;;;;11.63;4.72;;;435.30;2355.20;;;;;;5090588;28;20016;-75
2022/07/12 02:21:55;;;;;;;10.20;4.15;;;435.30;2355.20;;;;;;5091646;28;20031;-75
2022/07/12 02:24:21;;;;;;;14.15;4.50;;;435.30;2355.20;;;;;;5095845;28;20036;-75
2022/07/12 02:26:47;;;;;;;9.95;3.88;;;435.30;2355.20;;;;;;5095684;28;20024;-75
2022/07/12 02:29:13;;;;;;;11.40;4.90;;;435.20;2355.20;;;;;;5094585;28;20013;-76
2022/07/12 02:31:39;;;;;;;10.38;3.70;;;435.20;2355.20;;;;;;5094435;28;20026;-76
2022/07/12 02:34:05;;;;;;;12.10;4.22;;;410.50;2355.20;;;;;;5095827;28;20032;-76
2022/07/12 02:36:31;;;;;;;8.40;4.45;;;410.50;2355.20;;;;;;5095383;28;20066;-76
2022/07/12 02:39:02;;;;;;;10.40;5.00;;;410.50;2355.20;;;;;;5095394;28;20027;-76
2022/07/12 02:41:28;;;;;;;11.45;4.47;;;410.50;2355.20;;;;;;5095615;28;20016;-76
2022/07/12 02:43:54;;;;;;;15.85;4.65;;;410.30;2355.20;;;;;;5092627;28;20023;-76
2022/07/12 02:46:19;;;;;;;14.88;4.50;;;410.30;2355.20;;;;;;5095538;28;20024;-76
2022/07/12 02:48:45;;;;;;;16.58;4.85;;;410.30;2355.20;;;;;;5095263;28;20020;-76
2022/07/12 02:51:11;;;;;;;15.02;5.20;;;410.30;2355.20;;;;;;5095258;28;20465;-75
2022/07/12 02:53:37;;;;;;;15.75;5.55;;;410.40;2355.20;;;;;;5093820;28;20031;-76
2022/07/12 02:56:03;;;;;;;11.38;5.05;;;410.30;2355.20;;;;;;5103993;28;20115;-75
2022/07/12 02:58:29;;;;;;;11.45;4.68;;;410.50;2355.20;;;;;;5115411;28;20025;-77
2022/07/12 03:00:55;;;;;;;14.80;5.25;;;410.50;2355.20;;;;;;5112664;28;20019;-75
2022/07/12 03:03:21;;;;;;;13.15;5.43;;;410.40;2355.20;;;;;;5097022;28;20092;-76
2022/07/12 03:05:47;;;;;;;10.88;5.38;;;410.30;2355.20;;;;;;5096983;28;20016;-75
2022/07/12 03:08:13;;;;;;;14.27;5.03;;;410.30;2355.20;;;;;;5115394;28;20027;-76
2022/07/12 03:10:39;;;;;;;11.77;5.40;;;410.30;2355.20;;;;;;5096535;28;20465;-75
2022/07/12 03:13:05;;;;;;;9.95;4.63;;;410.30;2355.20;;;;;;5097222;28;20032;-77
2022/07/12 03:15:32;;;;;;;11.93;5.25;;;410.20;2355.20;;;;;;5115129;28;20481;-75
2022/07/12 03:17:59;;;;;;;11.73;4.93;;;410.20;2355.20;;;;;;5115386;28;20457;-77
2022/07/12 03:20:24;;;;;;;18.15;4.20;;;410.20;2355.20;;;;;;5096872;28;20020;-76
2022/07/12 03:22:51;;;;;;;17.33;5.63;;;410.30;2355.20;;;;;;5096840;28;20104;-76
2022/07/12 03:25:18;;;;;;;17.10;5.38;;;410.30;2355.20;;;;;;5096532;28;20019;-76
2022/07/12 03:27:44;;;;;;;12.57;4.63;;;410.30;2355.20;;;;;;5096791;28;20024;-76
2022/07/12 03:30:10;;;;;;;14.98;4.68;;;410.30;2355.20;;;;;;5096745;28;20023;-76
2022/07/12 03:32:37;;;;;;;10.82;4.97;;;410.30;2355.20;;;;;;5114759;28;20062;-76
2022/07/12 03:35:03;;;;;;;11.82;4.80;;;410.20;2355.20;;;;;;5113654;28;20015;-76
2022/07/12 03:37:51;;;;;;;10.43;4.93;;;410.20;2355.20;;;;;;5096034;28;20038;-76
2022/07/12 03:40:18;;;;;;;14.40;4.22;;;410.20;2355.20;;;;;;5096469;28;20095;-76
2022/07/12 03:42:45;;;;;;;14.32;4.88;;;410.20;2355.20;;;;;;5096683;28;20069;-75
2022/07/12 03:45:12;;;;;;;10.45;4.68;;;410.30;2355.20;;;;;;5096362;28;20106;-76
2022/07/12 03:47:38;;;;;;;9.23;4.65;;;410.30;2355.20;;;;;;5096498;28;20043;-76
2022/07/12 03:50:06;;;;;;;8.80;4.50;;;410.30;2355.20;;;;;;5096426;28;20107;-75
2022/07/12 03:52:32;;;;;;;10.30;4.47;;;410.20;2355.20;;;;;;5114455;28;20023;-76
2022/07/12 03:54:58;;;;;;;12.23;4.53;;;410.20;2355.20;;;;;;5093385;28;20111;-75
2022/07/12 03:57:26;;;;;;;21.13;5.30;;;410.20;2355.20;;;;;;5114285;28;20046;-76
2022/07/12 03:59:52;;;;;;;17.50;4.88;;;410.20;2355.20;;;;;;5114294;28;20040;-76
2022/07/12 04:02:18;;;;;;;12.65;4.53;;;410.20;2355.20;;;;;;5111658;28;20012;-75
2022/07/12 04:04:44;;;;;;;8.80;3.88;;;410.20;2355.20;;;;;;5114234;28;20019;-77
2022/07/12 04:07:10;;;;;;;13.63;4.15;;;410.20;2355.20;;;;;;5095766;28;20019;-76
2022/07/12 04:09:36;;;;;;;14.10;4.55;;;410.30;2355.20;;;;;;5114108;28;20031;-75
2022/07/12 04:12:02;;;;;;;10.35;4.22;;;410.30;2355.20;;;;;;5095748;28;20015;-76
2022/07/12 04:14:31;;;;;;;9.13;4.38;;;410.30;2355.20;;;;;;5114377;28;20449;-77
2022/07/12 04:16:57;;;;;;;9.88;4.13;;;410.50;2355.20;;;;;;5114078;28;20558;-76
2022/07/12 04:19:27;;;;;;;9.07;3.88;;;410.50;2355.20;;;;;;5114246;28;20023;-77
2022/07/12 04:21:55;;;;;;;12.85;3.92;;;410.40;2355.20;;;;;;5095419;28;20020;-76
2022/07/12 04:24:22;;;;;;;7.38;4.70;;;410.50;2355.20;;;;;;5105046;28;20059;-76
2022/07/12 04:26:48;;;;;;;10.27;3.95;;;410.50;2355.20;;;;;;5114132;28;20107;-76
2022/07/12 04:29:18;;;;;;;18.33;8.90;;;410.50;2355.20;;;;;;5095728;28;20023;-78
2022/07/12 04:31:44;;;;;;;23.55;4.95;;;435.30;2355.20;;;;;;5111423;28;20572;-77
2022/07/12 04:34:10;;;;;;;13.00;4.55;;;435.30;2355.20;;;;;;5095473;28;20115;-77
2022/07/12 04:36:36;;;;;;;12.15;4.72;;;435.40;2355.20;;;;;;5095402;28;20469;-77
2022/07/12 04:39:02;;;;;;;12.20;4.07;;;435.60;2355.20;;;;;;5114092;28;20480;-78
2022/07/12 04:41:28;;;;;;;9.05;3.75;;;435.70;2355.20;;;;;;5113743;28;20522;-77
2022/07/12 04:43:54;;;;;;;16.02;5.40;;;435.80;2355.20;;;;;;5081186;28;20023;-75
2022/07/12 04:46:19;;;;;;;15.45;3.88;;;435.60;2355.20;;;;;;5113569;28;20102;-77
2022/07/12 04:48:45;;;;;;;12.13;4.65;;;435.70;2355.20;;;;;;5081216;28;20378;-77
2022/07/12 04:51:11;;;;;;;12.00;4.22;;;435.80;2355.20;;;;;;5113646;28;20466;-77
2022/07/12 04:53:37;;;;;;;9.95;4.40;;;435.90;2355.20;;;;;;5095404;28;20035;-77
2022/07/12 04:56:02;;;;;;;16.45;4.38;;;435.90;2355.20;;;;;;5090292;27;20095;-77
2022/07/12 04:58:28;;;;;;;13.50;4.10;;;435.90;2355.20;;;;;;5126371;27;20108;-77
2022/07/12 05:00:54;;;;;;;15.63;4.25;;;436.10;2355.20;;;;;;5127584;27;20092;-77
2022/07/12 05:03:20;;;;;;;28.20;4.20;;;436.10;2355.20;;;;;;5113963;27;20102;-77
2022/07/12 05:05:45;;;;;;;17.70;4.07;;;460.90;2380.80;;;;;;5083317;28;20032;-77
2022/07/12 05:08:11;;;;;;;17.75;4.82;;;460.90;2380.80;;;;;;5089252;28;20522;-78
2022/07/12 05:10:37;;;;;;;7.63;3.08;;;461.00;2380.80;;;;;;5085103;28;20020;-80
2022/07/12 05:13:03;;;;;;;15.32;4.00;;;461.20;2380.80;;;;;;5113694;28;20114;-79
2022/07/12 05:15:29;;;;;;;9.25;4.13;;;461.10;2380.80;;;;;;5095209;28;20499;-79
2022/07/12 05:17:54;;;;;;;9.48;2.97;;;461.20;2380.80;;;;;;5095396;28;20023;-79
2022/07/12 05:20:20;;;;;;;6.95;3.58;;;461.40;2355.20;;;;;;5089568;28;20024;-79
2022/07/12 05:22:46;;;;;;;8.38;4.05;;;461.40;2355.20;;;;;;5086501;28;20036;-79
2022/07/12 05:25:12;;;;;;;9.95;3.28;;;461.50;2355.20;;;;;;5111671;28;20051;-78
2022/07/12 05:27:38;;;;;;;13.55;3.53;;;461.50;2304.00;;;;;;5094711;28;20051;-79
2022/07/12 05:30:04;;;;;;;11.45;3.13;;;461.70;2304.00;;;;;;5093291;28;20023;-79
2022/07/12 05:32:30;;;;;;;9.02;3.53;;;461.50;2278.40;;;;;;5082514;28;20130;-79
2022/07/12 05:34:56;;;;;;;9.20;3.15;;;461.70;2252.80;;;;;;5101460;28;20079;-79
2022/07/12 05:37:24;;;;;;;11.15;2.55;;;486.40;2252.80;;;;;;5086465;27;20023;-81
2022/07/12 05:39:51;;;;;;;19.60;4.22;;;486.40;2252.80;;;;;;5102922;28;20560;-77
2022/07/12 05:42:17;;;;;;;8.35;2.97;;;486.40;2227.20;;;;;;5094363;28;20024;-78
2022/07/12 05:44:43;;;;;;;12.18;3.10;;;486.50;2227.20;;;;;;5111507;28;20031;-77
2022/07/12 05:47:08;;;;;;;12.73;3.75;;;486.60;2176.00;;;;;;5080550;28;20470;-76
2022/07/12 05:49:34;;;;;;;7.03;3.42;;;486.70;2201.60;;;;;;5111503;28;20032;-79
2022/07/12 05:54:44;;;;;;;7.85;3.05;;;486.90;2150.40;;;;;;5112780;28;20051;-77
2022/07/12 05:57:11;;;;;;;6.32;2.78;;;487.00;2124.80;;;;;;5123126;27;20047;-78
2022/07/12 05:59:36;;;;;;;13.48;3.83;;;487.00;2099.20;;;;;;5083213;28;20376;-80
2022/07/12 06:02:03;;;;;;;8.77;2.92;;;487.10;2099.20;;;;;;5103916;27;20011;-83
2022/07/12 06:04:29;;;;;;;10.32;3.08;;;487.30;2048.00;;;;;;5101513;28;20028;-81
2022/07/12 06:06:56;;;;;;;12.43;3.53;;;487.30;2073.60;;;;;;5125814;27;20030;-82
2022/07/12 06:09:21;;;;;;;10.18;3.47;;;487.30;2073.60;;;;;;5111014;28;20501;-75
2022/07/12 06:11:47;;;;;;;11.45;3.67;;;487.30;1996.80;;;;;;5112166;28;20024;-79
2022/07/12 06:14:13;;;;;;;7.65;3.63;;;512.10;1996.80;;;;;;5110815;28;20035;-79
2022/07/12 06:16:38;;;;;;;13.52;3.30;;;512.20;1996.80;;;;;;5096455;28;20111;-76
2022/07/12 06:19:04;;;;;;;7.78;3.00;;;512.30;1971.20;;;;;;5112812;28;20473;-78
2022/07/12 06:21:30;;;;;;;7.32;2.88;;;512.50;1971.20;;;;;;5111697;28;20023;-76
2022/07/12 06:23:56;;;;;;;11.07;3.67;;;512.60;1920.00;;;;;;5112462;28;20471;-76
2022/07/12 06:26:22;;;;;;;13.02;3.00;;;512.70;1920.00;;;;;;5080527;28;20077;-76
2022/07/12 06:28:47;;;;;;;8.63;3.05;;;512.90;1868.80;;;;;;5087900;28;20051;-76
2022/07/12 06:31:13;;;;;;;9.45;2.85;;;537.60;1894.40;;;;;;5103718;28;20015;-76
2022/07/12 06:33:39;;;;;;;6.32;2.90;;;537.70;1868.80;;;;;;5079357;28;20027;-74
2022/07/12 06:36:04;;;;;;;10.50;3.22;;;537.80;1817.60;;;;;;5084755;28;20024;-76
2022/07/12 06:38:31;;;;;;;8.85;2.88;;;537.90;1868.80;;;;;;5106887;28;20081;-76
2022/07/12 06:40:57;;;;;;;8.48;3.03;;;538.00;1817.60;;;;;;5112364;28;20099;-76
2022/07/12 06:43:22;;;;;;;7.13;3.22;;;538.10;1792.00;;;;;;5080383;28;20142;-77
2022/07/12 06:45:48;;;;;;;7.85;2.67;;;538.20;1817.60;;;;;;5111555;28;20427;-75
2022/07/12 06:48:14;;;;;;;7.43;2.58;;;538.40;1792.00;;;;;;5112914;28;20028;-81
2022/07/12 06:50:40;;;;;;;9.88;3.00;;;538.50;1766.40;;;;;;5109510;28;20030;-82
2022/07/12 06:53:06;;;;;;;6.00;3.03;;;538.50;1740.80;;;;;;5094680;28;20028;-82
2022/07/12 06:55:31;;;;;;;6.70;2.65;;;563.20;1766.40;;;;;;5093875;28;20043;-81
2022/07/12 06:57:57;;;;;;;8.68;2.85;;;563.40;1740.80;;;;;;5097120;28;20088;-83
2022/07/12 07:00:23;;;;;;;10.40;3.05;;;563.50;1715.20;;;;;;5105110;28;20093;-81
2022/07/12 07:02:49;;;;;;;10.68;2.70;;;563.70;1689.60;;;;;;5109115;28;20023;-83
2022/07/12 07:05:17;;;;;;;11.18;2.50;;;563.80;1638.40;;;;;;5107720;28;20172;-84
2022/07/12 07:07:42;;;;;;;6.10;2.85;;;563.80;1638.40;;;;;;5094884;28;20457;-83
2022/07/12 07:10:08;;;;;;;11.32;2.80;;;564.00;1612.80;;;;;;5104095;27;20027;-79
2022/07/12 07:12:34;;;;;;;10.90;2.40;;;564.10;1587.20;;;;;;5107113;28;20035;-86
2022/07/12 07:15:00;;;;;;;7.45;2.60;;;588.80;1561.60;;;;;;5116642;28;20012;-87
2022/07/12 07:17:26;;;;;;;9.07;2.90;;;588.90;1536.00;;;;;;5098785;28;20065;-87
2022/07/12 07:19:51;;;;;;;9.07;2.30;;;589.00;1510.40;;;;;;5112960;27;20414;-87
2022/07/12 07:22:18;;;;;;;5.90;2.50;;;589.10;1510.40;;;;;;5111233;28;20119;-90
2022/07/12 07:24:44;;;;;;;7.47;2.50;;;589.10;1484.80;;;;;;5098607;28;20059;-87
2022/07/12 07:27:10;;;;;;;11.00;2.85;;;589.20;1459.20;;;;;;5104614;27;20015;-86
2022/07/12 07:32:20;;;;;;;6.95;2.30;;;589.50;1433.60;;;;;;5123072;27;20111;-86
2022/07/12 07:34:45;;;;;;;4.90;1.85;;;589.70;1408.00;;;;;;5106332;28;20027;-85
2022/07/12 07:37:11;;;;;;;6.80;2.65;;;614.40;1382.40;;;;;;5112452;28;20012;-84
2022/07/12 07:39:37;;;;;;;6.18;1.70;;;614.50;1408.00;;;;;;5108090;28;20023;-84
2022/07/12 07:42:03;;;;;;;3.45;1.40;;;614.70;1382.40;;;;;;5112793;27;20032;-89
2022/07/12 07:44:29;;;;;;;4.10;1.50;;;614.80;1356.80;;;;;;5106694;27;20024;-84
2022/07/12 07:46:55;;;;;;;5.65;2.10;;;614.80;1356.80;;;;;;5118045;27;20169;-84
2022/07/12 07:49:20;;;;;;;4.22;2.25;;;614.80;1356.80;;;;;;5104355;27;20027;-82
2022/07/12 07:51:46;;;;;;;6.65;1.80;;;614.90;1356.80;;;;;;5105548;28;20039;-87
2022/07/12 07:54:12;;;;;;;6.68;1.75;;;615.00;1331.20;;;;;;5114873;28;20500;-87
2022/07/12 07:56:37;;;;;;;6.53;1.80;;;615.20;1356.80;;;;;;5111261;28;20047;-84
2022/07/12 07:59:03;;;;;;;2.50;1.25;;;615.30;1305.60;;;;;;5097882;28;20028;-87
2022/07/12 08:04:16;;;;;;;2.80;1.20;;;640.00;1280.00;;;;;;5129717;27;20071;-84
2022/07/12 08:06:42;;;;;;;5.45;1.55;;;640.20;1280.00;;;;;;5112335;28;20108;-83
2022/07/12 08:09:09;;;;;;;4.45;1.30;;;640.20;1280.00;;;;;;5097889;28;20032;-90
2022/07/12 08:11:35;;;;;;;5.63;1.30;;;640.30;1254.40;;;;;;5114554;28;20100;-83
2022/07/12 08:14:02;;;;;;;4.30;1.38;;;640.30;1228.80;;;;;;5097591;28;20500;-85
2022/07/12 08:16:28;;;;;;;4.38;1.55;;;640.00;1228.80;;;;;;5099153;27;20016;-84
2022/07/12 08:18:54;;;;;;;4.82;1.30;;;615.30;1228.80;;;;;;5110001;28;20026;-85
2022/07/12 08:21:20;;;;;;;4.82;1.40;;;640.00;1203.20;;;;;;5113532;28;20358;-87
2022/07/12 08:23:46;;;;;;;1.25;0.90;;;640.20;1177.60;;;;;;5129865;27;20073;-84
2022/07/12 08:26:11;;;;;;;5.47;1.13;;;640.20;1177.60;;;;;;5109605;27;20027;-89
2022/07/12 08:28:37;;;;;;;9.63;1.30;;;640.40;1203.20;;;;;;5099327;28;20122;-85
2022/07/12 08:31:03;;;;;;;4.72;1.27;;;640.60;1177.60;;;;;;5097226;28;20532;-87
2022/07/12 08:33:29;;;;;;;2.75;1.52;;;640.70;1177.60;;;;;;5113222;27;20031;-86
2022/07/12 08:35:55;;;;;;;6.13;1.63;;;640.70;1177.60;;;;;;5109337;28;20091;-88
2022/07/12 08:38:21;;;;;;;3.05;1.13;;;640.70;1152.00;;;;;;5097276;28;20084;-88
2022/07/12 08:40:47;;;;;;;6.25;1.27;;;640.80;1126.40;;;;;;5096196;28;20028;-80
2022/07/12 08:43:13;;;;;;;6.50;1.30;;;665.60;1177.60;;;;;;5110362;28;20431;-84
2022/07/12 08:45:40;;;;;;;3.58;1.33;;;640.90;1152.00;;;;;;5127265;27;20518;-84
2022/07/12 08:48:07;;;;;;;2.33;1.08;;;640.90;1152.00;;;;;;5113724;28;20027;-87
2022/07/12 08:50:33;;;;;;;6.47;1.88;;;640.80;1152.00;;;;;;5096856;28;20074;-83
2022/07/12 08:52:59;;;;;;;8.35;1.85;;;640.60;1152.00;;;;;;5096646;28;20035;-84
2022/07/12 08:55:33;;;;;;;3.40;1.48;;;640.70;1152.00;;;;;;5096350;28;20358;-82
2022/07/12 08:58:07;;;;;;;5.80;1.27;;;640.60;1203.20;;;;;;5096076;28;20020;-82
2022/07/12 09:00:33;;;;;;;7.95;1.50;;;640.30;1203.20;;;;;;5125152;27;20023;-79
2022/07/12 09:03:01;;;;;;;4.93;1.75;;;640.40;1203.20;;;;;;5098991;28;20499;-80
2022/07/12 09:05:32;;;;;;;3.60;1.25;;;640.50;1177.60;;;;;;5095679;28;20024;-81
2022/07/12 09:08:10;;;;;;;4.72;1.42;;;640.50;1177.60;;;;;;5081398;28;20024;-83
2022/07/12 09:10:52;;;;;;;5.75;1.23;;;640.60;1177.60;;;;;;5106283;28;20085;-80
2022/07/12 09:13:21;;;;;;;5.35;1.92;;;640.40;1177.60;;;;;;5113239;28;20499;-79
2022/07/12 09:15:47;;;;;;;3.20;1.20;;;640.40;1203.20;;;;;;5113639;28;20027;-79
2022/07/12 09:18:15;;;;;;;3.78;1.42;;;640.40;1203.20;;;;;;5113986;28;20092;-81
2022/07/12 09:20:43;;;;;;;11.48;1.42;;;640.50;1177.60;;;;;;5107697;28;20024;-82
2022/07/12 09:23:12;;;;;;;3.42;1.33;;;640.80;1177.60;;;;;;5095693;28;20116;-81
2022/07/12 09:25:43;;;;;;;2.85;1.25;;;665.60;1177.60;;;;;;5113110;28;20028;-82
2022/07/12 09:28:09;;;;;;;6.35;1.45;;;666.00;1152.00;;;;;;5095507;28;20031;-82
2022/07/12 09:30:39;;;;;;;3.22;1.13;;;665.90;1152.00;;;;;;5095520;28;20061;-81
2022/07/12 09:36:06;;;;;;;6.53;1.60;;;640.70;1152.00;;;;;;5101457;28;20030;-82
2022/07/12 09:38:33;;;;;;;5.88;1.45;;;640.50;1177.60;;;;;;5110008;27;20383;-83
2022/07/12 09:40:59;;;;;;;5.32;1.65;;;640.80;1177.60;;;;;;5095662;28;20016;-82
2022/07/12 09:43:27;;;;;;;3.92;1.45;;;666.00;1177.60;;;;;;5095475;28;20127;-83
2022/07/12 09:45:52;;;;;;;6.07;1.38;;;666.20;1152.00;;;;;;5095355;28;20469;-82
2022/07/12 09:48:22;;;;;;;3.33;1.33;;;666.50;1126.40;;;;;;5095680;28;20073;-85
2022/07/12 09:50:52;;;;;;;4.25;1.60;;;691.20;1126.40;;;;;;5085895;27;20533;-84
2022/07/12 09:53:26;;;;;;;3.58;1.58;;;691.50;1100.80;;;;;;5104749;28;20032;-83
2022/07/12 09:55:52;;;;;;;2.72;1.30;;;691.40;1126.40;;;;;;5095155;28;20039;-83
2022/07/12 09:58:31;;;;;;;3.63;1.17;;;666.50;1100.80;;;;;;5091459;28;20036;-84
2022/07/12 10:01:02;;;;;;;4.47;1.40;;;666.20;1075.20;;;;;;5089110;28;20019;-82
2022/07/12 10:03:31;;;;;;;6.28;1.52;;;666.10;1100.80;;;;;;5095329;28;20061;-82
2022/07/12 10:06:00;;;;;;;6.10;1.60;;;666.10;1100.80;;;;;;5095518;28;20020;-84
2022/07/12 10:08:25;;;;;;;3.72;1.42;;;665.90;1126.40;;;;;;5095085;28;20110;-84
2022/07/12 10:10:52;;;;;;;4.63;1.30;;;666.50;1126.40;;;;;;5095270;28;20110;-83
2022/07/12 10:13:19;;;;;;;4.22;1.30;;;691.50;1126.40;;;;;;5091329;28;20043;-84
2022/07/12 10:15:47;;;;;;;6.97;1.42;;;692.10;1075.20;;;;;;5085003;28;20026;-83
2022/07/12 10:18:17;;;;;;;6.97;1.35;;;691.80;1075.20;;;;;;5095506;28;20479;-84
2022/07/12 10:20:46;;;;;;;3.13;1.35;;;691.40;1049.60;;;;;;5095324;28;20027;-84
2022/07/12 10:23:36;;;;;;;7.32;1.45;;;666.50;1075.20;;;;;;5080890;28;20028;-84
2022/07/12 10:26:26;;;;;;;4.65;1.05;;;666.20;1075.20;;;;;;5095198;28;20035;-84
2022/07/12 10:29:04;;;;;;;2.55;1.35;;;666.00;1100.80;;;;;;5080681;28;20116;-82
2022/07/12 10:31:38;;;;;;;8.50;1.65;;;665.80;1126.40;;;;;;5094779;28;20020;-83
2022/07/12 10:34:12;;;;;;;4.28;1.30;;;665.60;1100.80;;;;;;5113044;28;20032;-84
2022/07/12 10:36:56;;;;;;;3.95;1.33;;;665.60;1126.40;;;;;;5108896;28;20036;-83
2022/07/12 10:39:26;;;;;;;3.85;1.60;;;666.50;1100.80;;;;;;5092626;28;20012;-81
2022/07/12 10:42:05;;;;;;;3.47;1.23;;;691.80;1049.60;;;;;;5107516;28;20034;-82
2022/07/12 10:44:35;;;;;;;6.45;1.42;;;691.90;1049.60;;;;;;5097852;28;20023;-84
2022/07/12 10:47:02;;;;;;;1.98;1.10;;;691.60;1024.00;;;;;;5099009;28;20481;-84
2022/07/12 10:49:32;;;;;;;6.07;1.70;;;691.60;1049.60;;;;;;5098826;28;20035;-83
2022/07/12 10:52:10;;;;;;;2.80;1.30;;;691.20;1049.60;;;;;;5084393;28;20375;-84
2022/07/12 10:54:50;;;;;;;3.42;1.23;;;666.50;1049.60;;;;;;5116945;28;20516;-85
2022/07/12 10:57:17;;;;;;;8.73;2.00;;;666.50;1049.60;;;;;;5102693;28;20047;-83
2022/07/12 10:59:49;;;;;;;6.53;2.03;;;691.60;1075.20;;;;;;5112911;28;20020;-83
2022/07/12 11:02:16;;;;;;;3.70;1.77;;;691.70;1075.20;;;;;;5107610;28;20497;-83
2022/07/12 11:04:48;;;;;;;4.13;1.50;;;692.10;1049.60;;;;;;5113456;28;20040;-81
2022/07/12 11:07:18;;;;;;;3.97;1.30;;;717.00;1049.60;;;;;;5087852;28;20027;-83
2022/07/12 11:09:44;;;;;;;7.55;1.50;;;692.10;1024.00;;;;;;5114890;27;20027;-82
2022/07/12 11:12:10;;;;;;;6.28;1.20;;;691.80;1049.60;;;;;;5128350;27;20024;-82
2022/07/12 11:14:35;;;;;;;2.47;1.20;;;691.80;1049.60;;;;;;5083998;28;20131;-84
2022/07/12 11:17:01;;;;;;;4.72;1.25;;;716.90;1049.60;;;;;;5098331;28;20487;-84
2022/07/12 11:19:30;;;;;;;3.75;1.33;;;717.30;998.40;;;;;;5098348;28;20085;-83
2022/07/12 11:21:58;;;;;;;3.80;1.10;;;742.40;998.40;;;;;;5097981;28;20647;-82
2022/07/12 11:24:26;;;;;;;2.38;1.00;;;742.40;998.40;;;;;;5086904;28;20024;-83
2022/07/12 11:26:54;;;;;;;6.82;1.33;;;742.50;1024.00;;;;;;5095466;28;20031;-84
2022/07/12 11:29:21;;;;;;;4.80;1.20;;;717.50;998.40;;;;;;5116288;28;20024;-84
2022/07/12 11:31:48;;;;;;;2.40;0.82;;;717.40;998.40;;;;;;5112176;27;20019;-84
2022/07/12 11:34:25;;;;;;;2.92;1.52;;;717.60;998.40;;;;;;5097910;28;20032;-82
2022/07/12 11:37:01;;;;;;;4.38;1.30;;;717.20;998.40;;;;;;5097780;28;20145;-78
2022/07/12 11:39:40;;;;;;;2.03;1.23;;;717.20;1024.00;;;;;;5096853;28;20035;-82
2022/07/12 11:42:07;;;;;;;1.48;1.00;;;717.30;1024.00;;;;;;5116111;28;20438;-81
2022/07/12 11:44:50;;;;;;;4.50;1.48;;;717.70;998.40;;;;;;5097717;28;20374;-83
2022/07/12 11:47:18;;;;;;;3.22;1.35;;;742.60;998.40;;;;;;5083173;28;20111;-82
2022/07/12 11:49:54;;;;;;;4.28;1.13;;;742.50;998.40;;;;;;5097837;28;20023;-83
2022/07/12 11:52:22;;;;;;;1.60;0.90;;;717.40;998.40;;;;;;5115420;28;20018;-84
2022/07/12 11:54:49;;;;;;;3.30;1.33;;;717.50;972.80;;;;;;5088538;28;20179;-83
2022/07/12 11:57:20;;;;;;;1.98;1.10;;;717.70;972.80;;;;;;5113934;27;20054;-84
2022/07/12 11:59:46;;;;;;;3.13;1.20;;;717.60;947.20;;;;;;5099883;28;20501;-82
2022/07/12 12:02:13;;;;;;;3.28;0.98;;;717.40;947.20;;;;;;5087316;28;20061;-76
2022/07/12 12:04:49;;;;;;;7.25;1.30;;;717.60;947.20;;;;;;5111717;28;20055;-81
2022/07/12 12:07:16;;;;;;;3.88;1.15;;;717.10;972.80;;;;;;5115691;28;20080;-86
2022/07/12 12:10:03;;;;;;;5.53;1.27;;;716.90;972.80;;;;;;5115562;28;20159;-80
2022/07/12 12:12:46;;;;;;;2.47;1.10;;;692.10;972.80;;;;;;5108083;27;20415;-82
2022/07/12 12:15:15;;;;;;;6.05;1.50;;;691.90;998.40;;;;;;5102139;27;20102;-82
2022/07/12 12:18:08;;;;;;;4.50;1.35;;;692.10;998.40;;;;;;5115254;28;20024;-82
2022/07/12 12:20:38;;;;;;;5.40;1.60;;;692.00;1024.00;;;;;;5111420;28;20035;-83
2022/07/12 12:23:15;;;;;;;6.72;1.85;;;692.00;998.40;;;;;;5097438;28;20134;-81
2022/07/12 12:25:41;;;;;;;4.57;1.50;;;716.90;1024.00;;;;;;5115437;28;20102;-85
2022/07/12 12:28:07;;;;;;;2.00;1.10;;;717.20;998.40;;;;;;5096993;28;20108;-87
2022/07/12 12:30:35;;;;;;;3.47;1.30;;;717.30;972.80;;;;;;5114415;28;20019;-86